sensor_id;sensor_type;location;lat;lon;timestamp;pressure;altitude;pressure_sealevel;temperature;humidity
34983;BME280;21187;50.976;13.720;2023-12-29T00:02:46;97941.69;;;10.42;49.25
34983;BME280;21187;50.976;13.720;2023-12-29T00:07:48;97937.84;;;10.43;48.92
34983;BME280;21187;50.976;13.720;2023-12-29T00:12:50;97928.16;;;10.42;48.74
34983;BME280;21187;50.976;13.720;2023-12-29T00:17:52;97935.06;;;10.40;49.23
34983;BME280;21187;50.976;13.720;2023-12-29T00:22:54;97922.75;;;10.42;49.00
34983;BME280;21187;50.976;13.720;2023-12-29T00:27:59;97915.47;;;10.46;49.46
34983;BME280;21187;50.976;13.720;2023-12-29T00:33:02;97912.44;;;10.48;49.27
34983;BME280;21187;50.976;13.720;2023-12-29T00:38:04;97904.31;;;10.48;49.41
34983;BME280;21187;50.976;13.720;2023-12-29T00:43:06;97897.81;;;10.53;50.06
34983;BME280;21187;50.976;13.720;2023-12-29T00:48:08;97897.25;;;10.63;49.60
34983;BME280;21187;50.976;13.720;2023-12-29T00:53:11;97887.78;;;10.73;49.75
34983;BME280;21187;50.976;13.720;2023-12-29T00:58:13;97894.84;;;10.77;49.43
34983;BME280;21187;50.976;13.720;2023-12-29T01:03:15;97885.28;;;10.84;48.91
34983;BME280;21187;50.976;13.720;2023-12-29T01:08:17;97881.56;;;10.92;48.76
34983;BME280;21187;50.976;13.720;2023-12-29T01:13:19;97891.69;;;10.95;49.25
34983;BME280;21187;50.976;13.720;2023-12-29T01:18:20;97884.75;;;10.97;48.68
34983;BME280;21187;50.976;13.720;2023-12-29T01:23:22;97884.75;;;10.97;48.51
34983;BME280;21187;50.976;13.720;2023-12-29T01:28:24;97892.53;;;10.99;48.71
34983;BME280;21187;50.976;13.720;2023-12-29T01:33:27;97883.25;;;11.00;48.89
34983;BME280;21187;50.976;13.720;2023-12-29T01:38:29;97877.84;;;11.00;48.71
34983;BME280;21187;50.976;13.720;2023-12-29T01:43:32;97879.81;;;11.03;48.46
34983;BME280;21187;50.976;13.720;2023-12-29T01:48:34;97880.25;;;11.05;48.78
34983;BME280;21187;50.976;13.720;2023-12-29T01:53:36;97876.41;;;11.06;48.75
34983;BME280;21187;50.976;13.720;2023-12-29T01:58:49;97863.25;;;11.08;48.43
34983;BME280;21187;50.976;13.720;2023-12-29T02:03:51;97864.06;;;11.09;48.50
34983;BME280;21187;50.976;13.720;2023-12-29T02:08:53;97857.84;;;11.08;48.70
34983;BME280;21187;50.976;13.720;2023-12-29T02:13:56;97852.44;;;11.08;48.47
34983;BME280;21187;50.976;13.720;2023-12-29T02:18:59;97860.84;;;11.03;48.53
34983;BME280;21187;50.976;13.720;2023-12-29T02:24:05;97850.75;;;11.00;48.62
34983;BME280;21187;50.976;13.720;2023-12-29T02:29:10;97834.47;;;11.00;48.76
34983;BME280;21187;50.976;13.720;2023-12-29T02:34:17;97838.34;;;10.99;48.78
34983;BME280;21187;50.976;13.720;2023-12-29T02:39:20;97818.97;;;10.97;49.10
34983;BME280;21187;50.976;13.720;2023-12-29T02:44:23;97822.06;;;10.99;48.79
34983;BME280;21187;50.976;13.720;2023-12-29T02:49:26;97814.38;;;11.01;48.72
34983;BME280;21187;50.976;13.720;2023-12-29T02:54:28;97797.66;;;10.95;49.03
34983;BME280;21187;50.976;13.720;2023-12-29T02:59:30;97781.31;;;10.92;49.07
34983;BME280;21187;50.976;13.720;2023-12-29T03:04:32;97787.88;;;10.91;48.92
34983;BME280;21187;50.976;13.720;2023-12-29T03:09:34;97791.03;;;10.93;48.63
34983;BME280;21187;50.976;13.720;2023-12-29T03:14:36;97790.28;;;10.96;48.88
34983;BME280;21187;50.976;13.720;2023-12-29T03:19:39;97795.78;;;10.99;48.88
34983;BME280;21187;50.976;13.720;2023-12-29T03:24:41;97795.78;;;10.99;48.66
34983;BME280;21187;50.976;13.720;2023-12-29T03:29:46;97786.44;;;10.97;48.81
34983;BME280;21187;50.976;13.720;2023-12-29T03:34:48;97790.72;;;10.98;48.96
34983;BME280;21187;50.976;13.720;2023-12-29T03:39:50;97777.94;;;10.98;49.10
34983;BME280;21187;50.976;13.720;2023-12-29T03:44:52;97776.84;;;11.03;49.45
34983;BME280;21187;50.976;13.720;2023-12-29T03:49:56;97775.00;;;11.07;49.10
34983;BME280;21187;50.976;13.720;2023-12-29T03:54:58;97767.28;;;11.09;48.94
34983;BME280;21187;50.976;13.720;2023-12-29T04:00:00;97779.03;;;11.17;49.21
34983;BME280;21187;50.976;13.720;2023-12-29T04:05:02;97773.69;;;11.24;49.05
34983;BME280;21187;50.976;13.720;2023-12-29T04:10:04;97762.22;;;11.31;48.93
34983;BME280;21187;50.976;13.720;2023-12-29T04:15:07;97763.38;;;11.33;48.84
34983;BME280;21187;50.976;13.720;2023-12-29T04:20:09;97755.25;;;11.33;49.01
34983;BME280;21187;50.976;13.720;2023-12-29T04:25:11;97752.91;;;11.32;48.74
34983;BME280;21187;50.976;13.720;2023-12-29T04:30:13;97749.06;;;11.33;48.67
34983;BME280;21187;50.976;13.720;2023-12-29T04:35:15;97742.50;;;11.34;48.54
34983;BME280;21187;50.976;13.720;2023-12-29T04:40:17;97746.78;;;11.35;48.32
34983;BME280;21187;50.976;13.720;2023-12-29T04:45:19;97758.03;;;11.37;48.44
34983;BME280;21187;50.976;13.720;2023-12-29T04:50:21;97751.47;;;11.38;48.34
34983;BME280;21187;50.976;13.720;2023-12-29T04:55:22;97756.88;;;11.38;48.32
34983;BME280;21187;50.976;13.720;2023-12-29T05:00:24;97747.59;;;11.39;48.61
34983;BME280;21187;50.976;13.720;2023-12-29T05:05:26;97747.19;;;11.37;47.85
34983;BME280;21187;50.976;13.720;2023-12-29T05:10:28;97734.34;;;11.34;48.16
34983;BME280;21187;50.976;13.720;2023-12-29T05:15:30;97737.38;;;11.29;48.38
34983;BME280;21187;50.976;13.720;2023-12-29T05:20:32;97739.66;;;11.27;48.46
34983;BME280;21187;50.976;13.720;2023-12-29T05:25:35;97743.53;;;11.26;48.32
34983;BME280;21187;50.976;13.720;2023-12-29T05:30:38;97744.31;;;11.26;48.42
34983;BME280;21187;50.976;13.720;2023-12-29T05:35:43;97746.97;;;11.23;48.67
34983;BME280;21187;50.976;13.720;2023-12-29T05:40:45;97738.06;;;11.22;48.66
34983;BME280;21187;50.976;13.720;2023-12-29T05:45:47;97734.97;;;11.24;48.88
34983;BME280;21187;50.976;13.720;2023-12-29T05:50:52;97733.41;;;11.23;49.07
34983;BME280;21187;50.976;13.720;2023-12-29T05:55:53;97733.53;;;11.30;48.76
34983;BME280;21187;50.976;13.720;2023-12-29T06:00:55;97731.59;;;11.30;48.83
34983;BME280;21187;50.976;13.720;2023-12-29T06:05:57;97731.97;;;11.29;48.38
34983;BME280;21187;50.976;13.720;2023-12-29T06:11:00;97723.41;;;11.27;48.26
34983;BME280;21187;50.976;13.720;2023-12-29T06:16:02;97725.78;;;11.32;47.75
34983;BME280;21187;50.976;13.720;2023-12-29T06:21:04;97710.34;;;11.36;47.56
34983;BME280;21187;50.976;13.720;2023-12-29T06:26:13;97705.00;;;11.40;46.88
34983;BME280;21187;50.976;13.720;2023-12-29T06:31:17;97701.88;;;11.38;46.78
34983;BME280;21187;50.976;13.720;2023-12-29T06:36:19;97708.81;;;11.35;46.03
34983;BME280;21187;50.976;13.720;2023-12-29T06:41:21;97703.78;;;11.37;46.16
34983;BME280;21187;50.976;13.720;2023-12-29T06:46:23;97693.75;;;11.38;46.16
34983;BME280;21187;50.976;13.720;2023-12-29T06:51:25;97669.34;;;11.38;45.96
34983;BME280;21187;50.976;13.720;2023-12-29T06:56:28;97674.03;;;11.41;46.00
34983;BME280;21187;50.976;13.720;2023-12-29T07:01:38;97655.47;;;11.43;45.92
34983;BME280;21187;50.976;13.720;2023-12-29T07:06:41;97666.28;;;11.39;46.25
34983;BME280;21187;50.976;13.720;2023-12-29T07:11:47;97650.00;;;11.39;46.14
34983;BME280;21187;50.976;13.720;2023-12-29T07:16:50;97656.13;;;11.36;46.64
34983;BME280;21187;50.976;13.720;2023-12-29T07:21:52;97646.09;;;11.37;46.64
34983;BME280;21187;50.976;13.720;2023-12-29T07:26:55;97636.81;;;11.38;46.41
34983;BME280;21187;50.976;13.720;2023-12-29T07:31:57;97645.34;;;11.40;46.42
34983;BME280;21187;50.976;13.720;2023-12-29T07:36:59;97654.69;;;11.42;46.43
34983;BME280;21187;50.976;13.720;2023-12-29T07:42:01;97664.78;;;11.45;46.49
34983;BME280;21187;50.976;13.720;2023-12-29T07:47:06;97676.47;;;11.49;46.58
34983;BME280;21187;50.976;13.720;2023-12-29T07:52:08;97690.44;;;11.52;46.68
34983;BME280;21187;50.976;13.720;2023-12-29T07:57:10;97703.28;;;11.55;46.53
34983;BME280;21187;50.976;13.720;2023-12-29T08:02:12;97717.66;;;11.59;46.30
34983;BME280;21187;50.976;13.720;2023-12-29T08:07:14;97740.19;;;11.63;46.60
34983;BME280;21187;50.976;13.720;2023-12-29T08:12:16;97736.34;;;11.68;46.45
34983;BME280;21187;50.976;13.720;2023-12-29T08:17:18;97754.25;;;11.72;46.46
34983;BME280;21187;50.976;13.720;2023-12-29T08:22:21;97760.50;;;11.76;46.16
34983;BME280;21187;50.976;13.720;2023-12-29T08:27:24;97745.88;;;11.85;46.40
34983;BME280;21187;50.976;13.720;2023-12-29T08:32:27;97748.28;;;11.90;46.41
34983;BME280;21187;50.976;13.720;2023-12-29T08:37:29;97758.47;;;11.96;46.08
34983;BME280;21187;50.976;13.720;2023-12-29T08:42:31;97755.47;;;12.05;46.11
34983;BME280;21187;50.976;13.720;2023-12-29T08:47:32;97770.97;;;12.05;46.36
34983;BME280;21187;50.976;13.720;2023-12-29T08:52:34;97781.88;;;12.08;46.38
34983;BME280;21187;50.976;13.720;2023-12-29T08:57:38;97766.38;;;12.09;46.15
34983;BME280;21187;50.976;13.720;2023-12-29T09:02:39;97769.53;;;12.14;46.41
34983;BME280;21187;50.976;13.720;2023-12-29T09:07:42;97775.78;;;12.19;46.48
34983;BME280;21187;50.976;13.720;2023-12-29T09:12:44;97763.81;;;12.23;46.30
34983;BME280;21187;50.976;13.720;2023-12-29T09:17:46;97763.13;;;12.30;46.27
34983;BME280;21187;50.976;13.720;2023-12-29T09:22:48;97760.47;;;12.37;46.35
34983;BME280;21187;50.976;13.720;2023-12-29T09:27:50;97762.88;;;12.42;46.55
34983;BME280;21187;50.976;13.720;2023-12-29T09:32:54;97749.34;;;12.49;46.63
34983;BME280;21187;50.976;13.720;2023-12-29T09:37:57;97756.44;;;12.58;45.96
34983;BME280;21187;50.976;13.720;2023-12-29T09:43:02;97742.47;;;12.59;45.99
34983;BME280;21187;50.976;13.720;2023-12-29T09:48:11;97752.63;;;12.66;45.91
34983;BME280;21187;50.976;13.720;2023-12-29T09:53:16;97741.44;;;12.71;45.82
34983;BME280;21187;50.976;13.720;2023-12-29T09:58:22;97748.81;;;12.74;45.84
34983;BME280;21187;50.976;13.720;2023-12-29T10:03:27;97756.97;;;12.74;45.54
34983;BME280;21187;50.976;13.720;2023-12-29T10:08:29;97756.63;;;12.79;45.61
34983;BME280;21187;50.976;13.720;2023-12-29T10:13:34;97750.13;;;12.91;45.57
34983;BME280;21187;50.976;13.720;2023-12-29T10:18:54;97764.91;;;12.94;45.46
34983;BME280;21187;50.976;13.720;2023-12-29T10:29:09;97754.41;;;12.92;45.29
34983;BME280;21187;50.976;13.720;2023-12-29T10:34:22;97773.47;;;12.96;45.40
34983;BME280;21187;50.976;13.720;2023-12-29T10:39:33;97765.72;;;12.98;45.62
34983;BME280;21187;50.976;13.720;2023-12-29T10:44:36;97762.63;;;12.96;45.48
34983;BME280;21187;50.976;13.720;2023-12-29T10:49:40;97754.81;;;12.91;45.46
34983;BME280;21187;50.976;13.720;2023-12-29T10:54:43;97771.06;;;12.87;45.49
34983;BME280;21187;50.976;13.720;2023-12-29T10:59:54;97755.53;;;12.88;45.38
34983;BME280;21187;50.976;13.720;2023-12-29T11:05:02;97734.25;;;12.93;45.50
34983;BME280;21187;50.976;13.720;2023-12-29T11:10:06;97738.63;;;13.05;45.22
34983;BME280;21187;50.976;13.720;2023-12-29T11:15:12;97733.94;;;13.06;45.00
34983;BME280;21187;50.976;13.720;2023-12-29T11:20:15;97726.22;;;13.11;44.99
34983;BME280;21187;50.976;13.720;2023-12-29T11:25:28;97718.47;;;13.13;45.01
34983;BME280;21187;50.976;13.720;2023-12-29T11:30:30;97730.56;;;13.20;44.84
34983;BME280;21187;50.976;13.720;2023-12-29T11:35:42;97734.88;;;13.28;44.85
34983;BME280;21187;50.976;13.720;2023-12-29T11:40:56;97719.44;;;13.39;44.77
34983;BME280;21187;50.976;13.720;2023-12-29T11:46:01;97713.63;;;13.44;44.49
34983;BME280;21187;50.976;13.720;2023-12-29T11:56:40;97712.47;;;13.45;44.21
34983;BME280;21187;50.976;13.720;2023-12-29T12:01:43;97701.63;;;13.49;44.26
34983;BME280;21187;50.976;13.720;2023-12-29T12:06:45;97721.81;;;13.48;43.91
34983;BME280;21187;50.976;13.720;2023-12-29T12:11:48;97727.22;;;13.44;44.27
34983;BME280;21187;50.976;13.720;2023-12-29T12:16:51;97719.03;;;13.37;44.49
34983;BME280;21187;50.976;13.720;2023-12-29T12:21:54;97711.59;;;13.34;44.81
34983;BME280;21187;50.976;13.720;2023-12-29T12:26:58;97702.28;;;13.35;44.74
34983;BME280;21187;50.976;13.720;2023-12-29T12:32:00;97703.09;;;13.36;44.79
34983;BME280;21187;50.976;13.720;2023-12-29T12:37:02;97701.94;;;13.37;45.05
34983;BME280;21187;50.976;13.720;2023-12-29T12:42:05;97690.69;;;13.38;44.90
34983;BME280;21187;50.976;13.720;2023-12-29T12:47:09;97682.16;;;13.43;44.87
34983;BME280;21187;50.976;13.720;2023-12-29T12:52:19;97691.94;;;13.59;44.87
34983;BME280;21187;50.976;13.720;2023-12-29T12:57:22;97700.22;;;13.80;44.54
34983;BME280;21187;50.976;13.720;2023-12-29T13:02:24;97702.22;;;13.98;44.23
34983;BME280;21187;50.976;13.720;2023-12-29T13:07:26;97706.56;;;14.21;44.02
34983;BME280;21187;50.976;13.720;2023-12-29T13:12:29;97713.50;;;14.00;44.17
34983;BME280;21187;50.976;13.720;2023-12-29T13:17:31;97706.78;;;13.69;44.30
34983;BME280;21187;50.976;13.720;2023-12-29T13:22:34;97701.63;;;13.49;44.83
34983;BME280;21187;50.976;13.720;2023-12-29T13:27:38;97700.03;;;13.41;44.88
34983;BME280;21187;50.976;13.720;2023-12-29T13:32:42;97687.88;;;13.31;45.08
34983;BME280;21187;50.976;13.720;2023-12-29T13:42:58;97670.75;;;13.20;45.41
34983;BME280;21187;50.976;13.720;2023-12-29T13:48:02;97669.97;;;13.23;45.28
34983;BME280;21187;50.976;13.720;2023-12-29T13:53:05;97663.34;;;13.20;45.32
34983;BME280;21187;50.976;13.720;2023-12-29T13:58:10;97658.69;;;13.21;45.08
34983;BME280;21187;50.976;13.720;2023-12-29T14:03:23;97653.66;;;13.23;44.70
34983;BME280;21187;50.976;13.720;2023-12-29T14:08:49;97663.38;;;13.27;44.63
34983;BME280;21187;50.976;13.720;2023-12-29T14:13:50;97660.31;;;13.29;44.35
34983;BME280;21187;50.976;13.720;2023-12-29T14:18:54;97668.53;;;13.36;44.64
34983;BME280;21187;50.976;13.720;2023-12-29T14:24:00;97658.06;;;13.38;44.82
34983;BME280;21187;50.976;13.720;2023-12-29T14:29:10;97671.66;;;13.38;44.55
34983;BME280;21187;50.976;13.720;2023-12-29T14:34:13;97678.28;;;13.41;44.53
34983;BME280;21187;50.976;13.720;2023-12-29T14:39:15;97669.72;;;13.42;44.39
34983;BME280;21187;50.976;13.720;2023-12-29T14:44:17;97672.84;;;13.44;44.21
34983;BME280;21187;50.976;13.720;2023-12-29T14:49:19;97665.06;;;13.43;44.34
34983;BME280;21187;50.976;13.720;2023-12-29T14:54:21;97661.97;;;13.41;44.33
34983;BME280;21187;50.976;13.720;2023-12-29T14:59:23;97662.72;;;13.41;44.17
34983;BME280;21187;50.976;13.720;2023-12-29T15:04:25;97655.72;;;13.40;44.20
34983;BME280;21187;50.976;13.720;2023-12-29T15:09:27;97663.50;;;13.38;44.49
34983;BME280;21187;50.976;13.720;2023-12-29T15:14:29;97643.28;;;13.39;44.49
34983;BME280;21187;50.976;13.720;2023-12-29T15:19:31;97628.53;;;13.40;44.23
34983;BME280;21187;50.976;13.720;2023-12-29T15:24:33;97643.28;;;13.43;44.26
34983;BME280;21187;50.976;13.720;2023-12-29T15:29:35;97649.50;;;13.43;44.31
34983;BME280;21187;50.976;13.720;2023-12-29T15:34:36;97639.81;;;13.42;44.47
34983;BME280;21187;50.976;13.720;2023-12-29T15:39:40;97644.06;;;13.43;44.60
34983;BME280;21187;50.976;13.720;2023-12-29T15:44:43;97644.06;;;13.43;44.60
34983;BME280;21187;50.976;13.720;2023-12-29T15:49:45;97637.06;;;13.39;44.73
34983;BME280;21187;50.976;13.720;2023-12-29T15:54:47;97639.38;;;13.37;44.77
34983;BME280;21187;50.976;13.720;2023-12-29T15:59:49;97637.81;;;13.36;44.60
34983;BME280;21187;50.976;13.720;2023-12-29T16:04:51;97633.16;;;13.36;44.73
34983;BME280;21187;50.976;13.720;2023-12-29T16:09:53;97638.59;;;13.36;44.83
34983;BME280;21187;50.976;13.720;2023-12-29T16:14:56;97630.00;;;13.34;44.91
34983;BME280;21187;50.976;13.720;2023-12-29T16:19:58;97627.69;;;13.29;44.96
34983;BME280;21187;50.976;13.720;2023-12-29T16:25:00;97629.56;;;13.25;45.32
34983;BME280;21187;50.976;13.720;2023-12-29T16:30:03;97636.53;;;13.22;45.31
34983;BME280;21187;50.976;13.720;2023-12-29T16:35:06;97624.53;;;13.20;45.15
34983;BME280;21187;50.976;13.720;2023-12-29T16:40:08;97635.75;;;13.18;45.42
34983;BME280;21187;50.976;13.720;2023-12-29T16:45:12;97634.56;;;13.15;45.50
34983;BME280;21187;50.976;13.720;2023-12-29T16:50:14;97636.09;;;13.13;45.34
34983;BME280;21187;50.976;13.720;2023-12-29T16:55:16;97642.31;;;13.10;45.50
34983;BME280;21187;50.976;13.720;2023-12-29T17:00:21;97643.47;;;13.09;45.49
34983;BME280;21187;50.976;13.720;2023-12-29T17:05:23;97636.50;;;13.08;45.45
34983;BME280;21187;50.976;13.720;2023-12-29T17:10:25;97630.66;;;13.06;45.37
34983;BME280;21187;50.976;13.720;2023-12-29T17:15:27;97626.75;;;13.03;45.35
34983;BME280;21187;50.976;13.720;2023-12-29T17:20:29;97601.06;;;12.97;45.61
34983;BME280;21187;50.976;13.720;2023-12-29T17:25:32;97609.19;;;12.90;45.53
34983;BME280;21187;50.976;13.720;2023-12-29T17:30:47;97601.00;;;12.86;45.88
34983;BME280;21187;50.976;13.720;2023-12-29T17:35:49;97612.69;;;12.87;45.66
34983;BME280;21187;50.976;13.720;2023-12-29T17:40:54;97617.31;;;12.86;45.79
34983;BME280;21187;50.976;13.720;2023-12-29T17:45:58;97627.38;;;12.82;45.82
34983;BME280;21187;50.976;13.720;2023-12-29T17:51:00;97617.28;;;12.79;45.87
34983;BME280;21187;50.976;13.720;2023-12-29T17:56:08;97607.94;;;12.76;45.79
34983;BME280;21187;50.976;13.720;2023-12-29T18:01:14;97628.13;;;12.75;45.80
34983;BME280;21187;50.976;13.720;2023-12-29T18:06:16;97620.34;;;12.77;45.87
34983;BME280;21187;50.976;13.720;2023-12-29T18:11:19;97614.16;;;12.77;45.92
34983;BME280;21187;50.976;13.720;2023-12-29T18:16:21;97603.31;;;12.80;45.76
34983;BME280;21187;50.976;13.720;2023-12-29T18:21:23;97610.66;;;12.80;45.59
34983;BME280;21187;50.976;13.720;2023-12-29T18:26:25;97622.72;;;12.82;45.69
34983;BME280;21187;50.976;13.720;2023-12-29T18:31:27;97645.28;;;12.87;45.85
34983;BME280;21187;50.976;13.720;2023-12-29T18:36:30;97619.66;;;12.88;45.42
34983;BME280;21187;50.976;13.720;2023-12-29T18:41:32;97634.44;;;12.94;45.41
34983;BME280;21187;50.976;13.720;2023-12-29T18:46:34;97630.97;;;12.97;45.08
34983;BME280;21187;50.976;13.720;2023-12-29T18:51:36;97637.19;;;13.01;45.36
34983;BME280;21187;50.976;13.720;2023-12-29T18:56:38;97622.06;;;13.04;45.11
34983;BME280;21187;50.976;13.720;2023-12-29T19:01:47;97615.09;;;13.06;44.91
34983;BME280;21187;50.976;13.720;2023-12-29T19:06:49;97622.88;;;13.04;44.83
34983;BME280;21187;50.976;13.720;2023-12-29T19:11:51;97624.44;;;13.05;45.03
34983;BME280;21187;50.976;13.720;2023-12-29T19:16:53;97622.09;;;13.07;44.93
34983;BME280;21187;50.976;13.720;2023-12-29T19:21:56;97626.34;;;13.01;45.14
34983;BME280;21187;50.976;13.720;2023-12-29T19:26:58;97620.88;;;12.94;45.06
34983;BME280;21187;50.976;13.720;2023-12-29T19:32:00;97628.22;;;12.90;45.32
34983;BME280;21187;50.976;13.720;2023-12-29T19:37:02;97628.97;;;12.87;45.23
34983;BME280;21187;50.976;13.720;2023-12-29T19:42:05;97621.19;;;12.81;45.12
34983;BME280;21187;50.976;13.720;2023-12-29T19:47:07;97610.28;;;12.78;45.11
34983;BME280;21187;50.976;13.720;2023-12-29T19:52:10;97611.06;;;12.78;45.21
34983;BME280;21187;50.976;13.720;2023-12-29T19:57:12;97616.91;;;12.80;45.11
34983;BME280;21187;50.976;13.720;2023-12-29T20:02:14;97618.09;;;12.83;45.04
34983;BME280;21187;50.976;13.720;2023-12-29T20:07:16;97608.75;;;12.80;45.25
34983;BME280;21187;50.976;13.720;2023-12-29T20:12:19;97613.41;;;12.84;45.48
34983;BME280;21187;50.976;13.720;2023-12-29T20:17:20;97615.41;;;12.87;45.35
34983;BME280;21187;50.976;13.720;2023-12-29T20:22:22;97611.16;;;12.93;45.28
34983;BME280;21187;50.976;13.720;2023-12-29T20:27:26;97616.63;;;13.00;45.01
34983;BME280;21187;50.976;13.720;2023-12-29T20:32:27;97608.13;;;13.05;45.18
34983;BME280;21187;50.976;13.720;2023-12-29T20:37:29;97612.03;;;13.08;45.30
34983;BME280;21187;50.976;13.720;2023-12-29T20:42:31;97610.88;;;13.12;45.33
34983;BME280;21187;50.976;13.720;2023-12-29T20:47:35;97600.41;;;13.14;45.24
34983;BME280;21187;50.976;13.720;2023-12-29T20:52:36;97604.66;;;13.15;45.37
34983;BME280;21187;50.976;13.720;2023-12-29T20:57:38;97598.06;;;13.17;45.09
34983;BME280;21187;50.976;13.720;2023-12-29T21:02:40;97599.63;;;13.14;45.30
34983;BME280;21187;50.976;13.720;2023-12-29T21:07:42;97596.13;;;13.13;45.21
34983;BME280;21187;50.976;13.720;2023-12-29T21:12:44;97586.81;;;13.14;45.29
34983;BME280;21187;50.976;13.720;2023-12-29T21:17:47;97573.22;;;13.18;45.02
34983;BME280;21187;50.976;13.720;2023-12-29T21:22:50;97575.56;;;13.16;45.11
34983;BME280;21187;50.976;13.720;2023-12-29T21:27:52;97575.53;;;13.12;45.14
34983;BME280;21187;50.976;13.720;2023-12-29T21:32:54;97572.38;;;13.03;45.36
34983;BME280;21187;50.976;13.720;2023-12-29T21:37:57;97592.56;;;13.02;45.41
34983;BME280;21187;50.976;13.720;2023-12-29T21:42:59;97584.03;;;13.07;45.51
34983;BME280;21187;50.976;13.720;2023-12-29T21:48:03;97577.09;;;13.13;45.34
34983;BME280;21187;50.976;13.720;2023-12-29T21:53:06;97570.09;;;13.12;45.46
34983;BME280;21187;50.976;13.720;2023-12-29T21:58:10;97568.50;;;13.04;45.54
34983;BME280;21187;50.976;13.720;2023-12-29T22:03:14;97554.47;;;12.95;45.80
34983;BME280;21187;50.976;13.720;2023-12-29T22:08:17;97566.47;;;12.87;46.08
34983;BME280;21187;50.976;13.720;2023-12-29T22:13:18;97553.47;;;12.58;46.77
34983;BME280;21187;50.976;13.720;2023-12-29T22:18:20;97574.34;;;12.43;47.08
34983;BME280;21187;50.976;13.720;2023-12-29T22:23:22;97571.16;;;12.38;47.22
34983;BME280;21187;50.976;13.720;2023-12-29T22:28:24;97565.78;;;12.41;47.20
34983;BME280;21187;50.976;13.720;2023-12-29T22:33:26;97565.44;;;12.46;46.87
34983;BME280;21187;50.976;13.720;2023-12-29T22:38:28;97564.69;;;12.53;46.83
34983;BME280;21187;50.976;13.720;2023-12-29T22:43:30;97558.91;;;12.58;46.79
34983;BME280;21187;50.976;13.720;2023-12-29T22:48:32;97527.84;;;12.56;46.63
34983;BME280;21187;50.976;13.720;2023-12-29T22:53:34;97529.72;;;12.44;46.69
34983;BME280;21187;50.976;13.720;2023-12-29T22:58:36;97535.53;;;12.39;46.85
34983;BME280;21187;50.976;13.720;2023-12-29T23:03:39;97539.72;;;12.33;46.76
34983;BME280;21187;50.976;13.720;2023-12-29T23:08:41;97532.69;;;12.28;46.88
34983;BME280;21187;50.976;13.720;2023-12-29T23:13:43;97526.84;;;12.23;46.72
34983;BME280;21187;50.976;13.720;2023-12-29T23:18:44;97532.25;;;12.19;47.03
34983;BME280;21187;50.976;13.720;2023-12-29T23:23:47;97529.19;;;12.21;46.98
34983;BME280;21187;50.976;13.720;2023-12-29T23:28:48;97526.84;;;12.23;47.02
34983;BME280;21187;50.976;13.720;2023-12-29T23:33:50;97537.78;;;12.30;46.87
34983;BME280;21187;50.976;13.720;2023-12-29T23:38:52;97542.84;;;12.35;46.72
34983;BME280;21187;50.976;13.720;2023-12-29T23:43:55;97552.53;;;12.36;46.53
34983;BME280;21187;50.976;13.720;2023-12-29T23:48:56;97534.72;;;12.39;46.75
34983;BME280;21187;50.976;13.720;2023-12-29T23:53:58;97521.94;;;12.39;46.75
34983;BME280;21187;50.976;13.720;2023-12-29T23:59:00;97516.84;;;12.34;46.64
